This is the latest recevied weather packets stored in our database for station/object CA4LJZ-10. If no packets are shown the sender has not sent any weather packets the latest 1 day(s).
| Time | Temp. | Humidity | Pressure | Rain* | Wind** | Luminosity | Snow |
|---|---|---|---|---|---|---|---|
| 1778096765 | 14.44° C | 81% | 955.1 hPa | - | - | - | - |
| 1778093164 | 14.44° C | 81% | 955.1 hPa | - | - | - | - |
| 1778088663 | 14.44° C | 81% | 955.1 hPa | - | - | - | - |
| 1778085961 | 14.44° C | 78% | 954.7 hPa | - | - | - | - |
| 1778085060 | 15° C | 76% | 954.5 hPa | - | - | - | - |
| 1778083258 | 16.11° C | 71% | 954.3 hPa | - | - | - | - |
| 1778076072 | 18.89° C | 48% | 953.1 hPa | - | - | - | - |
| 1778069765 | 17.22° C | 51% | 953.6 hPa | - | - | - | - |
| 1778068864 | 16.11° C | 55% | 953.5 hPa | - | - | - | - |
| 1778067963 | 15° C | 57% | 953.4 hPa | - | - | - | - |
| 1778061657 | 14.44° C | 59% | 952.6 hPa | - | - | - | - |
| 1778060756 | 14.44° C | 58% | 952.4 hPa | - | - | - | - |
| 1778059855 | 15° C | 58% | 951.9 hPa | - | - | - | - |
| 1778058954 | 15° C | 58% | 951.8 hPa | - | - | - | - |
| 1778055373 | 15° C | 58% | 951.8 hPa | - | - | - | - |
| 1778054473 | 15° C | 59% | 951.6 hPa | - | - | - | - |
| 1778053572 | 15° C | 57% | 951.9 hPa | - | - | - | - |
| 1778052670 | 15° C | 59% | 951.7 hPa | - | - | - | - |
| 1778051769 | 15° C | 58% | 951.9 hPa | - | - | - | - |
| 1778050101 | 15° C | 59% | 951.6 hPa | - | - | - | - |
| 1778049067 | 15° C | 58% | 951.7 hPa | - | - | - | - |
| 1778048166 | 16.67° C | 54% | 952 hPa | - | - | - | - |
| 1778047265 | 16.67° C | 55% | 952 hPa | - | - | - | - |
| 1778046363 | 16.67° C | 54% | 952.2 hPa | - | - | - | - |
| 1778044561 | 17.22° C | 54% | 952.5 hPa | - | - | - | - |
* Rain since midnight (hover to see other rain measurements)
** Current wind speed in m/s (hover to see current wind gust speed)